createdAt,value
2022-12-11T00:00:33.133Z,1
2022-12-11T00:01:36.272Z,1
2022-12-11T00:02:38.954Z,1
2022-12-11T00:03:42.051Z,1
2022-12-11T00:04:45.671Z,0.9
2022-12-11T00:05:48.747Z,0.9
2022-12-11T00:06:52.533Z,0.9
2022-12-11T00:07:55.760Z,0.9
2022-12-11T00:08:58.169Z,0.9
2022-12-11T00:10:00.956Z,0.9
2022-12-11T00:11:03.752Z,0.9
2022-12-11T00:12:06.882Z,0.9
2022-12-11T00:13:09.372Z,0.8
2022-12-11T00:14:11.868Z,0.8
2022-12-11T00:15:14.442Z,0.8
2022-12-11T00:16:23.892Z,0.8
2022-12-11T00:17:29.943Z,0.8
2022-12-11T00:18:33.381Z,0.8
2022-12-11T00:19:36.542Z,0.7
2022-12-11T00:20:39.265Z,0.7
2022-12-11T00:21:42.343Z,0.7
2022-12-11T00:22:46.444Z,0.7
2022-12-11T00:23:49.535Z,0.7
2022-12-11T00:24:52.790Z,0.7
2022-12-11T00:25:56.215Z,0.7
2022-12-11T00:26:59.268Z,0.7
2022-12-11T00:28:02.629Z,0.7
2022-12-11T00:29:05.231Z,0.7
2022-12-11T00:30:08.210Z,0.7
2022-12-11T00:31:10.922Z,0.6
2022-12-11T00:32:13.606Z,0.6
2022-12-11T00:33:16.885Z,0.6
2022-12-11T00:34:19.378Z,0.6
2022-12-11T00:35:21.814Z,0.6
2022-12-11T00:36:24.972Z,0.6
2022-12-11T00:37:28.005Z,0.5
2022-12-11T00:38:32.387Z,0.5
2022-12-11T00:39:34.824Z,0.5
2022-12-11T00:40:38.110Z,0.5
2022-12-11T00:41:40.873Z,0.5
2022-12-11T00:42:43.355Z,0.5
2022-12-11T00:43:45.840Z,0.5
2022-12-11T00:44:48.889Z,0.5
2022-12-11T00:45:52.493Z,0.5
2022-12-11T00:46:55.714Z,0.5
2022-12-11T00:47:59.066Z,0.5
2022-12-11T00:49:01.291Z,0.5
2022-12-11T00:50:03.989Z,0.5
2022-12-11T00:51:06.831Z,0.5
2022-12-11T00:52:10.180Z,0.5
2022-12-11T00:53:13.179Z,0.4
2022-12-11T00:54:17.035Z,0.4
2022-12-11T00:55:20.481Z,0.4
2022-12-11T00:56:23.184Z,0.4
2022-12-11T00:57:25.483Z,0.4
2022-12-11T00:58:27.972Z,0.4
2022-12-11T00:59:30.978Z,0.4
2022-12-11T01:00:34.025Z,0.4
2022-12-11T01:01:37.410Z,0.4
2022-12-11T01:02:40.421Z,0.4
2022-12-11T01:03:43.962Z,0.4
2022-12-11T01:04:46.656Z,0.4
2022-12-11T01:05:48.517Z,0.3
2022-12-11T01:06:50.762Z,0.3
2022-12-11T01:07:54.109Z,0.3
2022-12-11T01:08:57.304Z,0.3
2022-12-11T01:10:01.151Z,0.3
2022-12-11T01:11:03.653Z,0.3
2022-12-11T01:12:06.634Z,0.3
2022-12-11T01:13:09.489Z,0.3
2022-12-11T01:14:12.544Z,0.2
2022-12-11T01:15:15.593Z,0.2
2022-12-11T01:16:18.404Z,0.2
2022-12-11T01:17:21.587Z,0.2
2022-12-11T01:18:24.713Z,0.2
2022-12-11T01:19:27.788Z,0.1
2022-12-11T01:20:29.452Z,0.1
2022-12-11T01:21:32.022Z,0.1
2022-12-11T01:22:35.699Z,0.1
2022-12-11T01:23:38.560Z,0
2022-12-11T01:24:41.746Z,0
2022-12-11T01:25:45.293Z,0
2022-12-11T01:26:48.447Z,0
2022-12-11T01:27:50.464Z,-0.1
2022-12-11T01:28:53.520Z,-0.1
2022-12-11T01:29:56.002Z,-0.1
2022-12-11T01:30:59.193Z,-0.1
2022-12-11T01:32:02.512Z,-0.2
2022-12-11T01:33:05.741Z,-0.2
2022-12-11T01:34:08.717Z,-0.2
2022-12-11T01:35:12.929Z,-0.2
2022-12-11T01:36:15.750Z,-0.2
2022-12-11T01:37:18.263Z,-0.2
2022-12-11T01:38:20.973Z,-0.3
2022-12-11T01:39:23.973Z,-0.3
2022-12-11T01:40:27.019Z,-0.3
2022-12-11T01:41:30.099Z,-0.3
2022-12-11T01:42:33.944Z,-0.3
2022-12-11T01:43:37.987Z,-0.3
2022-12-11T01:44:40.960Z,-0.4
2022-12-11T01:45:43.919Z,-0.4
2022-12-11T01:46:46.811Z,-0.4
2022-12-11T01:47:49.657Z,-0.4
2022-12-11T01:48:52.701Z,-0.4
2022-12-11T01:49:56.098Z,-0.4
2022-12-11T01:50:59.252Z,-0.5
2022-12-11T01:52:02.402Z,-0.5
2022-12-11T01:53:05.185Z,-0.5
2022-12-11T01:54:07.884Z,-0.5
2022-12-11T01:55:12.844Z,-0.6
2022-12-11T01:56:16.004Z,-0.6
2022-12-11T01:57:18.145Z,-0.6
2022-12-11T01:58:21.266Z,-0.6
2022-12-11T01:59:24.745Z,-0.6
2022-12-11T02:00:27.804Z,-0.6
2022-12-11T02:01:31.096Z,-0.6
2022-12-11T02:02:35.050Z,-0.7
2022-12-11T02:03:38.061Z,-0.7
2022-12-11T02:04:41.693Z,-0.7
2022-12-11T02:05:44.459Z,-0.7
2022-12-11T02:06:47.607Z,-0.7
2022-12-11T02:07:50.839Z,-0.7
2022-12-11T02:08:54.243Z,-0.7
2022-12-11T02:09:57.287Z,-0.7
2022-12-11T02:11:00.082Z,-0.7
2022-12-11T02:12:01.947Z,-0.8
2022-12-11T02:13:04.447Z,-0.8
2022-12-11T02:14:07.559Z,-0.8
2022-12-11T02:15:12.041Z,-0.8
2022-12-11T02:16:16.059Z,-0.8
2022-12-11T02:17:19.555Z,-0.8
2022-12-11T02:18:22.060Z,-0.8
2022-12-11T02:19:25.115Z,-0.8
2022-12-11T02:20:27.533Z,-0.8
2022-12-11T02:21:30.500Z,-0.9
2022-12-11T02:22:32.915Z,-0.9
2022-12-11T02:23:36.162Z,-0.9
2022-12-11T02:24:39.588Z,-0.9
2022-12-11T02:25:42.005Z,-0.9
2022-12-11T02:26:45.151Z,-0.9
2022-12-11T02:27:47.295Z,-0.9
2022-12-11T02:28:50.732Z,-0.9
2022-12-11T02:29:54.126Z,-0.9
2022-12-11T02:30:58.067Z,-0.9
2022-12-11T02:32:01.446Z,-0.9
2022-12-11T02:33:04.792Z,-0.9
2022-12-11T02:34:07.289Z,-0.9
2022-12-11T02:35:11.774Z,-0.9
2022-12-11T02:36:15.241Z,-1
2022-12-11T02:37:18.034Z,-0.9
2022-12-11T02:38:20.740Z,-1
2022-12-11T02:39:23.792Z,-1
2022-12-11T02:40:26.291Z,-1
2022-12-11T02:41:29.212Z,-1
2022-12-11T02:42:32.962Z,-1
2022-12-11T02:43:36.216Z,-1
2022-12-11T02:44:39.066Z,-1
2022-12-11T02:45:42.431Z,-1.1
2022-12-11T02:46:46.421Z,-1
2022-12-11T02:47:49.395Z,-1.1
2022-12-11T02:48:52.444Z,-1.1
2022-12-11T02:49:55.419Z,-1.1
2022-12-11T02:50:58.129Z,-1.1
2022-12-11T02:52:00.363Z,-1.1
2022-12-11T02:53:02.862Z,-1.1
2022-12-11T02:54:06.281Z,-1.2
2022-12-11T02:55:09.883Z,-1.2
2022-12-11T02:56:13.528Z,-1.2
2022-12-11T02:57:16.789Z,-1.2
2022-12-11T02:58:19.314Z,-1.2
2022-12-11T02:59:22.196Z,-1.2
2022-12-11T03:00:25.242Z,-1.2
2022-12-11T03:01:28.964Z,-1.2
2022-12-11T03:02:39.306Z,-1.2
2022-12-11T03:03:42.583Z,-1.3
2022-12-11T03:04:45.836Z,-1.3
2022-12-11T03:05:48.607Z,-1.2
2022-12-11T03:06:51.128Z,-1.3
2022-12-11T03:07:53.802Z,-1.2
2022-12-11T03:08:57.312Z,-1.3
2022-12-11T03:10:00.455Z,-1.3
2022-12-11T03:11:02.953Z,-1.3
2022-12-11T03:12:06.101Z,-1.3
2022-12-11T03:13:09.149Z,-1.3
2022-12-11T03:14:12.583Z,-1.3
2022-12-11T03:15:15.626Z,-1.3
2022-12-11T03:16:18.307Z,-1.3
2022-12-11T03:17:21.843Z,-1.3
2022-12-11T03:18:24.962Z,-1.3
2022-12-11T03:19:28.640Z,-1.4
2022-12-11T03:20:31.697Z,-1.4
2022-12-11T03:21:35.022Z,-1.4
2022-12-11T03:22:38.077Z,-1.4
2022-12-11T03:23:42.074Z,-1.4
2022-12-11T03:24:44.843Z,-1.4
2022-12-11T03:25:48.171Z,-1.4
2022-12-11T03:27:01.026Z,-1.4
2022-12-11T03:28:12.734Z,-1.4
2022-12-11T03:29:15.815Z,-1.4
2022-12-11T03:30:18.044Z,-1.4
2022-12-11T03:31:21.191Z,-1.4
2022-12-11T03:32:24.456Z,-1.4
2022-12-11T03:33:28.475Z,-1.4
2022-12-11T03:34:32.204Z,-1.5
2022-12-11T03:35:34.625Z,-1.5
2022-12-11T03:36:37.115Z,-1.5
2022-12-11T03:37:39.618Z,-1.5
2022-12-11T03:38:43.192Z,-1.5
2022-12-11T03:39:45.891Z,-1.5
2022-12-11T03:40:49.092Z,-1.5
2022-12-11T03:41:51.950Z,-1.5
2022-12-11T03:42:54.419Z,-1.5
2022-12-11T03:43:56.877Z,-1.6
2022-12-11T03:45:00.655Z,-1.6
2022-12-11T03:46:04.007Z,-1.6
2022-12-11T03:47:07.352Z,-1.6
2022-12-11T03:48:10.245Z,-1.6
2022-12-11T03:49:13.605Z,-1.6
2022-12-11T03:50:16.968Z,-1.6
2022-12-11T03:51:20.012Z,-1.7
2022-12-11T03:52:22.945Z,-1.6
2022-12-11T03:53:26.348Z,-1.6
2022-12-11T03:54:29.415Z,-1.6
2022-12-11T03:55:32.738Z,-1.6
2022-12-11T03:56:35.689Z,-1.6
2022-12-11T03:57:38.664Z,-1.6
2022-12-11T03:58:42.073Z,-1.6
2022-12-11T03:59:45.231Z,-1.6
2022-12-11T04:00:48.083Z,-1.6
2022-12-11T04:01:51.496Z,-1.6
2022-12-11T04:02:54.206Z,-1.6
2022-12-11T04:03:56.911Z,-1.6
2022-12-11T04:05:00.835Z,-1.5
2022-12-11T04:06:03.709Z,-1.5
2022-12-11T04:07:06.302Z,-1.6
2022-12-11T04:08:09.057Z,-1.6
2022-12-11T04:09:11.827Z,-1.6
2022-12-11T04:10:15.237Z,-1.5
2022-12-11T04:11:17.826Z,-1.6
2022-12-11T04:12:20.050Z,-1.5
2022-12-11T04:13:22.901Z,-1.5
2022-12-11T04:14:25.413Z,-1.5
2022-12-11T04:15:28.283Z,-1.5
2022-12-11T04:16:31.623Z,-1.5
2022-12-11T04:17:34.465Z,-1.5
2022-12-11T04:18:38.245Z,-1.6
2022-12-11T04:19:41.442Z,-1.5
2022-12-11T04:20:44.967Z,-1.5
2022-12-11T04:21:47.851Z,-1.5
2022-12-11T04:22:50.077Z,-1.5
2022-12-11T04:23:52.305Z,-1.6
2022-12-11T04:24:55.070Z,-1.6
2022-12-11T04:25:57.354Z,-1.6
2022-12-11T04:27:00.051Z,-1.6
2022-12-11T04:28:02.552Z,-1.6
2022-12-11T04:29:05.126Z,-1.6
2022-12-11T04:30:07.820Z,-1.6
2022-12-11T04:31:11.014Z,-1.6
2022-12-11T04:32:14.135Z,-1.6
2022-12-11T04:33:16.627Z,-1.6
2022-12-11T04:34:19.415Z,-1.6
2022-12-11T04:35:22.598Z,-1.6
2022-12-11T04:36:26.259Z,-1.6
2022-12-11T04:37:29.389Z,-1.6
2022-12-11T04:38:32.724Z,-1.7
2022-12-11T04:39:35.852Z,-1.7
2022-12-11T04:40:37.993Z,-1.7
2022-12-11T04:41:41.045Z,-1.7
2022-12-11T04:42:43.899Z,-1.7
2022-12-11T04:43:46.622Z,-1.7
2022-12-11T04:44:49.407Z,-1.7
2022-12-11T04:45:51.628Z,-1.7
2022-12-11T04:46:54.613Z,-1.7
2022-12-11T04:47:57.744Z,-1.7
2022-12-11T04:49:01.351Z,-1.7
2022-12-11T04:50:04.751Z,-1.7
2022-12-11T04:51:07.864Z,-1.8
2022-12-11T04:52:11.033Z,-1.7
2022-12-11T04:53:14.379Z,-1.8
2022-12-11T04:54:17.423Z,-1.8
2022-12-11T04:55:20.123Z,-1.8
2022-12-11T04:56:23.457Z,-1.8
2022-12-11T04:57:26.321Z,-1.8
2022-12-11T04:58:29.669Z,-1.8
2022-12-11T04:59:32.462Z,-1.8
2022-12-11T05:00:35.229Z,-1.8
2022-12-11T05:01:38.459Z,-1.8
2022-12-11T05:02:41.800Z,-1.8
2022-12-11T05:03:44.423Z,-1.8
2022-12-11T05:04:47.217Z,-1.8
2022-12-11T05:05:50.549Z,-1.8
2022-12-11T05:06:53.114Z,-1.8
2022-12-11T05:07:56.646Z,-1.9
2022-12-11T05:09:00.553Z,-1.8
2022-12-11T05:10:03.317Z,-1.9
2022-12-11T05:11:06.074Z,-1.8
2022-12-11T05:12:08.765Z,-1.9
2022-12-11T05:13:11.246Z,-1.9
2022-12-11T05:14:14.366Z,-1.9
2022-12-11T05:15:17.490Z,-1.9
2022-12-11T05:16:20.466Z,-1.9
2022-12-11T05:17:23.414Z,-1.9
2022-12-11T05:18:26.680Z,-1.9
2022-12-11T05:19:30.093Z,-1.9
2022-12-11T05:20:33.072Z,-1.8
2022-12-11T05:21:36.373Z,-1.9
2022-12-11T05:22:39.707Z,-1.9
2022-12-11T05:23:43.199Z,-1.9
2022-12-11T05:24:46.644Z,-1.9
2022-12-11T05:25:49.565Z,-1.8
2022-12-11T05:26:51.969Z,-1.8
2022-12-11T05:27:54.933Z,-1.8
2022-12-11T05:28:58.067Z,-1.8
2022-12-11T05:30:01.117Z,-1.8
2022-12-11T05:31:03.454Z,-1.8
2022-12-11T05:32:06.229Z,-1.8
2022-12-11T05:33:08.744Z,-1.8
2022-12-11T05:34:11.717Z,-1.7
2022-12-11T05:35:15.012Z,-1.7
2022-12-11T05:36:17.501Z,-1.7
2022-12-11T05:37:20.200Z,-1.7
2022-12-11T05:38:23.408Z,-1.7
2022-12-11T05:39:26.865Z,-1.6
2022-12-11T05:40:29.675Z,-1.6
2022-12-11T05:41:32.808Z,-1.6
2022-12-11T05:42:35.860Z,-1.6
2022-12-11T05:43:38.888Z,-1.6
2022-12-11T05:44:41.582Z,-1.6
2022-12-11T05:45:44.698Z,-1.6
2022-12-11T05:46:47.958Z,-1.5
2022-12-11T05:47:51.552Z,-1.5
2022-12-11T05:48:54.951Z,-1.5
2022-12-11T05:49:57.732Z,-1.5
2022-12-11T05:51:00.170Z,-1.4
2022-12-11T05:52:03.035Z,-1.4
2022-12-11T05:53:06.161Z,-1.4
2022-12-11T05:54:09.474Z,-1.4
2022-12-11T05:55:14.009Z,-1.4
2022-12-11T05:56:17.771Z,-1.3
2022-12-11T05:57:20.549Z,-1.3
2022-12-11T05:58:23.473Z,-1.3
2022-12-11T05:59:25.965Z,-1.3
2022-12-11T06:00:36.874Z,-1.2
2022-12-11T06:01:40.028Z,-1.2
2022-12-11T06:02:44.262Z,-1.2
2022-12-11T06:03:47.043Z,-1.2
2022-12-11T06:04:49.801Z,-1.1
2022-12-11T06:05:53.283Z,-1.1
2022-12-11T06:06:56.083Z,-1.1
2022-12-11T06:07:59.679Z,-1.1
2022-12-11T06:09:02.864Z,-1.1
2022-12-11T06:10:05.622Z,-1
2022-12-11T06:11:08.714Z,-1
2022-12-11T06:12:11.852Z,-1
2022-12-11T06:13:15.262Z,-1
2022-12-11T06:14:18.317Z,-0.9
2022-12-11T06:15:20.742Z,-0.9
2022-12-11T06:16:23.187Z,-0.9
2022-12-11T06:17:25.730Z,-0.9
2022-12-11T06:18:28.687Z,-0.9
2022-12-11T06:19:37.804Z,-0.9
2022-12-11T06:20:40.855Z,-0.9
2022-12-11T06:21:43.623Z,-0.9
2022-12-11T06:22:46.753Z,-0.9
2022-12-11T06:23:49.526Z,-0.9
2022-12-11T06:24:51.688Z,-0.9
2022-12-11T06:25:54.576Z,-0.9
2022-12-11T06:26:58.301Z,-0.9
2022-12-11T06:28:01.477Z,-0.9
2022-12-11T06:29:13.598Z,-0.8
2022-12-11T06:30:16.677Z,-0.9
2022-12-11T06:31:20.104Z,-0.9
2022-12-11T06:32:24.103Z,-0.8
2022-12-11T06:33:26.875Z,-0.9
2022-12-11T06:34:29.638Z,-0.8
2022-12-11T06:35:38.678Z,-0.8
2022-12-11T06:36:45.080Z,-0.8
2022-12-11T06:37:48.812Z,-0.8
2022-12-11T06:38:51.379Z,-0.8
2022-12-11T06:39:55.071Z,-0.8
2022-12-11T06:40:58.176Z,-0.7
2022-12-11T06:42:01.053Z,-0.7
2022-12-11T06:43:05.129Z,-0.7
2022-12-11T06:44:08.190Z,-0.6
2022-12-11T06:45:12.639Z,-0.6
2022-12-11T06:46:16.225Z,-0.6
2022-12-11T06:47:19.661Z,-0.6
2022-12-11T06:48:22.446Z,-0.6
2022-12-11T06:49:24.859Z,-0.6
2022-12-11T06:50:27.648Z,-0.6
2022-12-11T06:51:30.640Z,-0.5
2022-12-11T06:52:33.888Z,-0.5
2022-12-11T06:53:37.037Z,-0.5
2022-12-11T06:54:40.141Z,-0.5
2022-12-11T06:55:42.632Z,-0.5
2022-12-11T06:56:45.195Z,-0.5
2022-12-11T06:57:48.350Z,-0.5
2022-12-11T06:58:51.699Z,-0.5
2022-12-11T06:59:55.252Z,-0.5
2022-12-11T07:00:57.676Z,-0.4
2022-12-11T07:02:00.757Z,-0.4
2022-12-11T07:03:04.247Z,-0.4
2022-12-11T07:04:07.311Z,-0.4
2022-12-11T07:05:11.279Z,-0.4
2022-12-11T07:06:15.334Z,-0.4
2022-12-11T07:07:18.664Z,-0.4
2022-12-11T07:08:21.936Z,-0.4
2022-12-11T07:09:24.761Z,-0.3
2022-12-11T07:10:27.464Z,-0.3
2022-12-11T07:11:30.251Z,-0.3
2022-12-11T07:12:33.666Z,-0.3
2022-12-11T07:13:37.398Z,-0.3
2022-12-11T07:14:40.813Z,-0.3
2022-12-11T07:15:43.512Z,-0.3
2022-12-11T07:16:46.698Z,-0.2
2022-12-11T07:17:49.079Z,-0.2
2022-12-11T07:18:51.258Z,-0.3
2022-12-11T07:19:54.096Z,-0.2
2022-12-11T07:20:56.584Z,-0.2
2022-12-11T07:21:59.918Z,-0.2
2022-12-11T07:23:02.439Z,-0.2
2022-12-11T07:24:05.486Z,-0.2
2022-12-11T07:25:10.396Z,-0.2
2022-12-11T07:26:14.803Z,-0.1
2022-12-11T07:27:17.582Z,-0.1
2022-12-11T07:28:20.795Z,-0.1
2022-12-11T07:29:24.459Z,-0.1
2022-12-11T07:30:28.038Z,-0.1
2022-12-11T07:31:30.738Z,-0.1
2022-12-11T07:32:33.638Z,-0.1
2022-12-11T07:33:36.893Z,-0.1
2022-12-11T07:34:39.677Z,-0.1
2022-12-11T07:35:42.173Z,-0.1
2022-12-11T07:36:44.875Z,-0.1
2022-12-11T07:37:47.947Z,-0.1
2022-12-11T07:38:51.306Z,0
2022-12-11T07:39:53.517Z,0
2022-12-11T07:40:55.833Z,0
2022-12-11T07:41:58.884Z,0
2022-12-11T07:43:01.928Z,0
2022-12-11T07:44:05.332Z,0
2022-12-11T07:45:10.529Z,0
2022-12-11T07:46:15.842Z,0
2022-12-11T07:47:18.784Z,0
2022-12-11T07:48:21.913Z,0
2022-12-11T07:49:24.613Z,0
2022-12-11T07:50:27.546Z,0
2022-12-11T07:51:30.257Z,0
2022-12-11T07:52:32.272Z,0.1
2022-12-11T07:53:35.208Z,0.1
2022-12-11T07:54:38.611Z,0.1
2022-12-11T07:55:41.414Z,0.1
2022-12-11T07:56:51.290Z,0.2
2022-12-11T07:57:57.092Z,0.2
2022-12-11T07:59:00.689Z,0.2
2022-12-11T08:00:04.158Z,0.3
2022-12-11T08:01:07.674Z,0.3
2022-12-11T08:02:11.443Z,0.3
2022-12-11T08:03:14.961Z,0.3
2022-12-11T08:04:17.734Z,0.3
2022-12-11T08:05:20.148Z,0.3
2022-12-11T08:06:22.672Z,0.3
2022-12-11T08:07:25.723Z,0.3
2022-12-11T08:08:29.279Z,0.3
2022-12-11T08:09:32.346Z,0.4
2022-12-11T08:10:35.323Z,0.4
2022-12-11T08:11:38.650Z,0.4
2022-12-11T08:12:42.121Z,0.4
2022-12-11T08:13:45.283Z,0.5
2022-12-11T08:14:48.123Z,0.5
2022-12-11T08:15:50.878Z,0.5
2022-12-11T08:16:57.689Z,0.5
2022-12-11T08:18:01.366Z,0.5
2022-12-11T08:19:04.419Z,0.6
2022-12-11T08:20:07.191Z,0.6
2022-12-11T08:21:09.146Z,0.6
2022-12-11T08:22:12.191Z,0.6
2022-12-11T08:23:15.348Z,0.6
2022-12-11T08:24:18.413Z,0.6
2022-12-11T08:25:21.487Z,0.6
2022-12-11T08:26:23.509Z,0.7
2022-12-11T08:27:26.201Z,0.7
2022-12-11T08:28:28.177Z,0.7
2022-12-11T08:29:30.953Z,0.7
2022-12-11T08:30:34.609Z,0.7
2022-12-11T08:31:38.107Z,0.8
2022-12-11T08:32:41.944Z,0.9
2022-12-11T08:33:44.790Z,0.9
2022-12-11T08:34:47.561Z,0.9
2022-12-11T08:35:50.060Z,0.9
2022-12-11T08:36:52.202Z,1
2022-12-11T08:37:54.457Z,1
2022-12-11T08:38:57.510Z,1
2022-12-11T08:40:00.491Z,1
2022-12-11T08:41:03.339Z,1.1
2022-12-11T08:42:06.464Z,1
2022-12-11T08:43:09.596Z,1.1
2022-12-11T08:44:17.654Z,1.1
2022-12-11T08:45:20.217Z,1.1
2022-12-11T08:46:22.881Z,1.1
2022-12-11T08:47:26.354Z,1.1
2022-12-11T08:48:30.115Z,1.2
2022-12-11T08:49:35.719Z,1.1
2022-12-11T08:50:38.209Z,1.2
2022-12-11T08:51:40.623Z,1.2
2022-12-11T08:52:43.484Z,1.2
2022-12-11T08:53:46.278Z,1.2
2022-12-11T08:54:49.110Z,1.2
2022-12-11T08:55:51.595Z,1.2
2022-12-11T08:56:58.968Z,1.2
2022-12-11T08:58:01.467Z,1.2
2022-12-11T08:59:04.726Z,1.2
2022-12-11T09:00:07.022Z,1.2
2022-12-11T09:01:10.314Z,1.2
2022-12-11T09:02:13.342Z,1.3
2022-12-11T09:03:16.707Z,1.3
2022-12-11T09:04:20.031Z,1.2
2022-12-11T09:05:23.455Z,1.3
2022-12-11T09:06:26.488Z,1.3
2022-12-11T09:07:29.919Z,1.3
2022-12-11T09:08:32.596Z,1.3
2022-12-11T09:09:35.324Z,1.3
2022-12-11T09:10:38.097Z,1.3
2022-12-11T09:11:41.251Z,1.3
2022-12-11T09:12:44.675Z,1.3
2022-12-11T09:13:47.095Z,1.3
2022-12-11T09:14:50.453Z,1.3
2022-12-11T09:15:53.679Z,1.3
2022-12-11T09:16:56.916Z,1.4
2022-12-11T09:17:59.796Z,1.4
2022-12-11T09:19:02.914Z,1.4
2022-12-11T09:20:05.705Z,1.4
2022-12-11T09:21:09.086Z,1.4
2022-12-11T09:22:11.859Z,1.4
2022-12-11T09:23:13.862Z,1.4
2022-12-11T09:24:17.068Z,1.4
2022-12-11T09:25:19.789Z,1.5
2022-12-11T09:26:22.565Z,1.5
2022-12-11T09:27:25.901Z,1.5
2022-12-11T09:28:28.708Z,1.5
2022-12-11T09:29:32.137Z,1.5
2022-12-11T09:30:35.021Z,1.5
2022-12-11T09:31:38.059Z,1.5
2022-12-11T09:32:41.498Z,1.5
2022-12-11T09:33:44.060Z,1.6
2022-12-11T09:34:46.998Z,1.6
2022-12-11T09:35:50.156Z,1.5
2022-12-11T09:36:53.598Z,1.6
2022-12-11T09:37:56.450Z,1.6
2022-12-11T09:38:58.589Z,1.6
2022-12-11T09:40:08.589Z,1.6
2022-12-11T09:41:11.666Z,1.6
2022-12-11T09:42:15.028Z,1.6
2022-12-11T09:43:17.315Z,1.6
2022-12-11T09:44:20.114Z,1.6
2022-12-11T09:45:22.607Z,1.7
2022-12-11T09:46:33.664Z,1.7
2022-12-11T09:47:37.226Z,1.7
2022-12-11T09:48:39.999Z,1.7
2022-12-11T09:49:43.364Z,1.7
2022-12-11T09:50:46.268Z,1.7
2022-12-11T09:51:49.747Z,1.7
2022-12-11T09:52:53.393Z,1.7
2022-12-11T09:53:56.831Z,1.8
2022-12-11T09:54:59.812Z,1.8
2022-12-11T09:56:03.305Z,1.8
2022-12-11T09:57:06.942Z,1.8
2022-12-11T09:58:09.637Z,1.8
2022-12-11T09:59:11.858Z,1.8
2022-12-11T10:00:14.920Z,1.8
2022-12-11T10:01:17.279Z,1.9
2022-12-11T10:02:20.275Z,1.9
2022-12-11T10:03:23.776Z,1.9
2022-12-11T10:04:26.892Z,1.9
2022-12-11T10:05:30.044Z,2
2022-12-11T10:06:33.075Z,2
2022-12-11T10:07:35.609Z,2
2022-12-11T10:08:38.500Z,2.1
2022-12-11T10:09:41.199Z,2.1
2022-12-11T10:10:43.772Z,2.1
2022-12-11T10:11:56.291Z,2.1
2022-12-11T10:12:59.226Z,2.1
2022-12-11T10:14:02.278Z,2.1
2022-12-11T10:15:05.342Z,2.1
2022-12-11T10:16:08.517Z,2.1
2022-12-11T10:17:11.612Z,2.2
2022-12-11T10:18:15.391Z,2.2
2022-12-11T10:19:18.177Z,2.2
2022-12-11T10:20:21.304Z,2.2
2022-12-11T10:21:24.042Z,2.2
2022-12-11T10:22:27.527Z,2.2
2022-12-11T10:23:31.231Z,2.2
2022-12-11T10:25:12.644Z,2.2
2022-12-11T10:26:16.243Z,2.2
2022-12-11T10:27:18.801Z,2.2
2022-12-11T10:28:21.200Z,2.2
2022-12-11T10:29:23.908Z,2.2
2022-12-11T10:30:34.276Z,2.2
2022-12-11T10:31:38.115Z,2.3
2022-12-11T10:32:41.283Z,2.3
2022-12-11T10:33:44.051Z,2.3
2022-12-11T10:34:47.109Z,2.3
2022-12-11T10:35:50.554Z,2.3
2022-12-11T10:37:00.972Z,2.3
2022-12-11T10:38:04.163Z,2.3
2022-12-11T10:39:07.604Z,2.3
2022-12-11T10:40:10.153Z,2.3
2022-12-11T10:41:13.204Z,2.4
2022-12-11T10:42:16.343Z,2.4
2022-12-11T10:43:19.125Z,2.4
2022-12-11T10:44:22.106Z,2.4
2022-12-11T10:45:24.961Z,2.4
2022-12-11T10:46:28.324Z,2.5
2022-12-11T10:47:30.864Z,2.5
2022-12-11T10:48:33.374Z,2.5
2022-12-11T10:49:36.169Z,2.5
2022-12-11T10:50:39.524Z,2.6
2022-12-11T10:51:41.665Z,2.6
2022-12-11T10:52:43.891Z,2.6
2022-12-11T10:53:46.723Z,2.6
2022-12-11T10:54:50.155Z,2.7
2022-12-11T10:55:53.661Z,2.7
2022-12-11T10:56:56.207Z,2.7
2022-12-11T10:57:59.581Z,2.7
2022-12-11T10:59:02.916Z,2.8
2022-12-11T11:00:05.975Z,2.8
2022-12-11T11:01:09.324Z,2.8
2022-12-11T11:02:12.927Z,2.8
2022-12-11T11:03:15.602Z,2.8
2022-12-11T11:04:18.684Z,2.8
2022-12-11T11:05:21.538Z,2.8
2022-12-11T11:06:24.329Z,2.8
2022-12-11T11:07:27.483Z,2.8
2022-12-11T11:08:30.852Z,2.8
2022-12-11T11:09:33.898Z,2.8
2022-12-11T11:10:36.708Z,2.8
2022-12-11T11:11:40.408Z,2.8
2022-12-11T11:12:43.008Z,2.8
2022-12-11T11:13:46.994Z,2.8
2022-12-11T11:14:49.846Z,2.8
2022-12-11T11:15:53.413Z,2.8
2022-12-11T11:16:56.961Z,2.8
2022-12-11T11:17:59.817Z,2.8
2022-12-11T11:19:02.917Z,2.8
2022-12-11T11:20:05.498Z,2.7
2022-12-11T11:21:08.361Z,2.7
2022-12-11T11:22:11.168Z,2.7
2022-12-11T11:23:14.225Z,2.7
2022-12-11T11:24:17.023Z,2.7
2022-12-11T11:25:20.194Z,2.7
2022-12-11T11:26:23.437Z,2.6
2022-12-11T11:28:15.099Z,2.6
2022-12-11T11:29:18.440Z,2.6
2022-12-11T11:30:21.410Z,2.6
2022-12-11T11:31:24.634Z,2.6
2022-12-11T11:32:26.952Z,2.6
2022-12-11T11:33:29.881Z,2.6
2022-12-11T11:34:32.941Z,2.6
2022-12-11T11:35:35.717Z,2.6
2022-12-11T11:36:47.698Z,2.6
2022-12-11T11:37:51.041Z,2.6
2022-12-11T11:38:54.119Z,2.6
2022-12-11T11:39:56.827Z,2.7
2022-12-11T11:41:15.184Z,2.6
2022-12-11T11:42:18.441Z,2.6
2022-12-11T11:43:22.098Z,2.7
2022-12-11T11:44:24.806Z,2.7
2022-12-11T11:45:27.551Z,2.6
2022-12-11T11:46:30.635Z,2.6
2022-12-11T11:47:34.869Z,2.6
2022-12-11T11:48:38.020Z,2.7
2022-12-11T11:49:41.747Z,2.6
2022-12-11T11:50:44.726Z,2.6
2022-12-11T11:51:47.570Z,2.6
2022-12-11T11:52:50.552Z,2.6
2022-12-11T11:53:53.430Z,2.7
2022-12-11T11:54:56.309Z,2.7
2022-12-11T11:55:58.813Z,2.7
2022-12-11T11:57:01.546Z,2.7
2022-12-11T11:58:04.665Z,2.7
2022-12-11T11:59:08.080Z,2.7
2022-12-11T12:00:11.052Z,2.7
2022-12-11T12:01:13.746Z,2.7
2022-12-11T12:02:16.790Z,2.7
2022-12-11T12:03:19.637Z,2.7
2022-12-11T12:04:22.692Z,2.7
2022-12-11T12:05:26.400Z,2.7
2022-12-11T12:06:29.813Z,2.6
2022-12-11T12:07:32.582Z,2.6
2022-12-11T12:08:36.119Z,2.6
2022-12-11T12:09:39.097Z,2.6
2022-12-11T12:10:41.618Z,2.7
2022-12-11T12:11:45.019Z,2.6
2022-12-11T12:12:48.221Z,2.6
2022-12-11T12:13:51.969Z,2.6
2022-12-11T12:14:55.070Z,2.6
2022-12-11T12:15:58.048Z,2.7
2022-12-11T12:17:01.529Z,2.7
2022-12-11T12:18:04.772Z,2.7
2022-12-11T12:19:08.147Z,2.7
2022-12-11T12:20:10.846Z,2.7
2022-12-11T12:21:13.385Z,2.7
2022-12-11T12:22:17.095Z,2.7
2022-12-11T12:23:19.871Z,2.7
2022-12-11T12:24:22.846Z,2.7
2022-12-11T12:25:25.847Z,2.7
2022-12-11T12:26:29.207Z,2.7
2022-12-11T12:28:02.709Z,2.7
2022-12-11T12:29:06.360Z,2.7
2022-12-11T12:30:09.752Z,2.7
2022-12-11T12:31:13.396Z,2.7
2022-12-11T12:32:16.752Z,2.7
2022-12-11T12:33:19.877Z,2.7
2022-12-11T12:34:23.294Z,2.7
2022-12-11T12:35:26.074Z,2.7
2022-12-11T12:36:29.503Z,2.7
2022-12-11T12:37:32.279Z,2.7
2022-12-11T12:38:35.981Z,2.7
2022-12-11T12:39:38.496Z,2.7
2022-12-11T12:40:41.216Z,2.7
2022-12-11T12:41:44.069Z,2.7
2022-12-11T12:42:47.122Z,2.7
2022-12-11T12:43:50.976Z,2.7
2022-12-11T12:44:54.551Z,2.7
2022-12-11T12:45:57.557Z,2.7
2022-12-11T12:47:00.449Z,2.7
2022-12-11T12:48:03.422Z,2.7
2022-12-11T12:49:06.752Z,2.7
2022-12-11T12:50:09.453Z,2.7
2022-12-11T12:51:12.912Z,2.7
2022-12-11T12:52:15.990Z,2.7
2022-12-11T12:53:18.963Z,2.7
2022-12-11T12:54:21.667Z,2.7
2022-12-11T12:55:24.343Z,2.6
2022-12-11T12:56:27.114Z,2.6
2022-12-11T12:57:29.869Z,2.6
2022-12-11T12:58:32.553Z,2.6
2022-12-11T12:59:35.628Z,2.6
2022-12-11T13:00:39.089Z,2.6
2022-12-11T13:01:42.747Z,2.6
2022-12-11T13:02:46.339Z,2.5
2022-12-11T13:03:49.200Z,2.5
2022-12-11T13:04:59.255Z,2.5
2022-12-11T13:06:02.101Z,2.5
2022-12-11T13:07:04.867Z,2.5
2022-12-11T13:08:08.365Z,2.5
2022-12-11T13:09:11.241Z,2.5
2022-12-11T13:10:14.285Z,2.5
2022-12-11T13:11:17.254Z,2.5
2022-12-11T13:12:20.457Z,2.5
2022-12-11T13:13:23.779Z,2.5
2022-12-11T13:14:26.203Z,2.5
2022-12-11T13:15:29.412Z,2.5
2022-12-11T13:16:33.661Z,2.5
2022-12-11T13:17:37.381Z,2.5
2022-12-11T13:18:40.713Z,2.5
2022-12-11T13:19:43.978Z,2.5
2022-12-11T13:20:47.688Z,2.5
2022-12-11T13:21:50.129Z,2.5
2022-12-11T13:22:53.185Z,2.5
2022-12-11T13:23:56.888Z,2.4
2022-12-11T13:24:59.588Z,2.4
2022-12-11T13:26:02.439Z,2.4
2022-12-11T13:27:05.521Z,2.4
2022-12-11T13:28:09.031Z,2.4
2022-12-11T13:29:11.726Z,2.4
2022-12-11T13:30:14.782Z,2.4
2022-12-11T13:31:18.372Z,2.4
2022-12-11T13:32:22.004Z,2.3
2022-12-11T13:33:25.361Z,2.3
2022-12-11T13:34:28.706Z,2.3
2022-12-11T13:35:31.561Z,2.3
2022-12-11T13:36:34.713Z,2.3
2022-12-11T13:37:37.487Z,2.3
2022-12-11T13:38:40.591Z,2.3
2022-12-11T13:39:43.684Z,2.3
2022-12-11T13:40:46.610Z,2.3
2022-12-11T13:41:49.666Z,2.3
2022-12-11T13:42:52.704Z,2.2
2022-12-11T13:43:55.040Z,2.2
2022-12-11T13:44:58.392Z,2.2
2022-12-11T13:46:01.942Z,2.2
2022-12-11T13:47:04.983Z,2.2
2022-12-11T13:48:16.963Z,2.1
2022-12-11T13:49:20.106Z,2.1
2022-12-11T13:50:23.533Z,2.2
2022-12-11T13:51:26.311Z,2.1
2022-12-11T13:52:29.935Z,2.1
2022-12-11T13:53:33.002Z,2.2
2022-12-11T13:54:36.345Z,2.2
2022-12-11T13:55:39.192Z,2.2
2022-12-11T13:56:42.335Z,2.2
2022-12-11T13:57:45.113Z,2.2
2022-12-11T13:58:47.254Z,2.2
2022-12-11T13:59:50.398Z,2.2
2022-12-11T14:00:53.596Z,2.2
2022-12-11T14:01:57.676Z,2.2
2022-12-11T14:03:00.912Z,2.2
2022-12-11T14:04:04.012Z,2.2
2022-12-11T14:05:07.106Z,2.2
2022-12-11T14:06:19.215Z,2.2
2022-12-11T14:07:22.283Z,2.2
2022-12-11T14:08:24.975Z,2.2
2022-12-11T14:09:27.896Z,2.2
2022-12-11T14:10:31.313Z,2.2
2022-12-11T14:11:34.433Z,2.2
2022-12-11T14:12:37.206Z,2.2
2022-12-11T14:13:40.364Z,2.2
2022-12-11T14:14:43.138Z,2.2
2022-12-11T14:15:46.598Z,2.1
2022-12-11T14:16:50.254Z,2.2
2022-12-11T14:17:53.719Z,2.1
2022-12-11T14:18:56.821Z,2.1
2022-12-11T14:20:00.649Z,2.1
2022-12-11T14:21:04.378Z,2.1
2022-12-11T14:22:07.511Z,2.1
2022-12-11T14:23:10.730Z,2.1